createdAt,value
2022-12-25T09:46:03.946Z,19.52
2022-12-25T09:48:33.702Z,17.75
2022-12-25T09:51:08.596Z,18.08
2022-12-25T09:53:43.564Z,21.35
2022-12-25T09:56:17.824Z,19.60
2022-12-25T09:58:45.054Z,21.30
2022-12-25T10:01:47.497Z,21.23
2022-12-25T10:04:22.109Z,19.85
2022-12-25T10:07:06.720Z,19.17
2022-12-25T10:09:56.060Z,19.90
2022-12-25T10:13:07.760Z,20.85
2022-12-25T10:15:55.622Z,22.58
2022-12-25T10:18:39.464Z,21.23
2022-12-25T10:21:13.341Z,21.23
2022-12-25T10:23:50.057Z,22.25
2022-12-25T10:26:19.792Z,31.40
2022-12-25T10:28:53.580Z,28.42
2022-12-25T10:31:26.637Z,23.40
2022-12-25T10:33:57.467Z,22.90
2022-12-25T10:36:27.677Z,22.58
2022-12-25T10:38:55.601Z,20.88
2022-12-25T10:41:53.093Z,18.60
2022-12-25T10:44:24.253Z,21.23
2022-12-25T10:46:59.417Z,20.73
2022-12-25T10:49:39.843Z,21.52
2022-12-25T10:52:21.539Z,19.10
2022-12-25T10:54:51.297Z,21.10
2022-12-25T10:57:20.598Z,19.77
2022-12-25T10:59:56.106Z,35.47
2022-12-25T11:02:34.451Z,25.73
2022-12-25T11:05:05.832Z,27.15
2022-12-25T11:07:33.252Z,45.58
2022-12-25T11:10:19.539Z,21.88
2022-12-25T11:12:47.368Z,29.83
2022-12-25T11:15:43.665Z,26.25
2022-12-25T11:18:23.226Z,18.70
2022-12-25T11:20:51.249Z,20.15
2022-12-25T11:23:20.292Z,20.42
2022-12-25T11:26:03.021Z,18.95
2022-12-25T11:28:32.768Z,20.75
2022-12-25T11:31:05.551Z,19.20
2022-12-25T11:33:41.086Z,19.30
2022-12-25T11:36:33.920Z,18.50
2022-12-25T11:39:14.312Z,18.75
2022-12-25T11:41:44.374Z,20.50
2022-12-25T11:44:27.368Z,20.05
2022-12-25T11:46:56.227Z,17.55
2022-12-25T11:49:24.384Z,20.48
2022-12-25T11:51:55.440Z,19.42
2022-12-25T11:54:37.096Z,17.55
2022-12-25T11:57:05.936Z,18.70
2022-12-25T11:59:40.493Z,22.23
2022-12-25T12:02:42.980Z,23.20
2022-12-25T12:05:35.480Z,20.73
2022-12-25T12:08:04.889Z,19.40
2022-12-25T12:10:47.256Z,20.65
2022-12-25T12:13:23.952Z,20.08
2022-12-25T12:15:53.779Z,19.90
2022-12-25T12:18:22.331Z,18.77
2022-12-25T12:21:05.667Z,18.75
2022-12-25T12:23:48.627Z,19.50
2022-12-25T12:26:27.126Z,20.35
2022-12-25T12:28:57.849Z,19.65
2022-12-25T12:31:28.540Z,20.20
2022-12-25T12:33:59.202Z,19.95
2022-12-25T12:36:35.487Z,21.20
2022-12-25T12:39:05.290Z,20.50
2022-12-25T12:41:45.959Z,23.05
2022-12-25T12:44:14.289Z,20.30
2022-12-25T12:46:54.597Z,24.88
2022-12-25T12:49:28.588Z,19.95
2022-12-25T12:52:11.533Z,20.50
2022-12-25T12:55:00.422Z,21.15
2022-12-25T12:57:31.387Z,22.13
2022-12-25T13:00:04.800Z,19.98
2022-12-25T13:03:30.100Z,21.20
2022-12-25T13:06:17.127Z,21.58
2022-12-25T13:08:58.085Z,22.60
2022-12-25T13:11:32.272Z,21.60
2022-12-25T13:14:02.692Z,22.77
2022-12-25T13:16:38.808Z,22.73
2022-12-25T13:19:18.069Z,19.73
2022-12-25T13:22:06.205Z,20.13
2022-12-25T13:24:35.451Z,22.05
2022-12-25T13:27:20.982Z,21.33
2022-12-25T13:29:47.840Z,23.67
2022-12-25T13:32:37.678Z,21.02
2022-12-25T13:35:12.253Z,20.92
2022-12-25T13:37:39.260Z,22.38
2022-12-25T13:40:08.471Z,23.05
2022-12-25T13:42:37.406Z,22.00
2022-12-25T13:45:18.491Z,22.05
2022-12-25T13:47:49.934Z,23.08
2022-12-25T13:50:29.589Z,24.80
2022-12-25T13:52:58.468Z,24.20
2022-12-25T13:55:28.248Z,26.23
2022-12-25T13:58:03.512Z,26.75
2022-12-25T14:00:37.012Z,25.38
2022-12-25T14:03:07.536Z,24.70
2022-12-25T14:05:42.868Z,27.02
2022-12-25T14:08:17.002Z,27.15
2022-12-25T14:10:48.487Z,26.05
2022-12-25T14:13:16.233Z,26.20
2022-12-25T14:15:45.020Z,28.13
2022-12-25T14:18:16.660Z,28.30
2022-12-25T14:21:04.843Z,26.25
2022-12-25T14:23:49.252Z,30.55
2022-12-25T14:26:23.604Z,28.88
2022-12-25T14:28:53.414Z,29.30
2022-12-25T14:31:21.482Z,30.20
2022-12-25T14:33:49.117Z,26.40
2022-12-25T14:36:16.158Z,25.15
2022-12-25T14:38:44.260Z,28.15
2022-12-25T14:41:22.615Z,25.65
2022-12-25T14:43:54.766Z,26.13
2022-12-25T14:46:26.763Z,26.17
2022-12-25T14:49:04.347Z,24.50
2022-12-25T14:51:32.722Z,23.80
2022-12-25T14:54:04.104Z,25.60
2022-12-25T14:56:39.250Z,24.60
2022-12-25T14:59:09.572Z,22.63
2022-12-25T15:01:40.015Z,23.52
2022-12-25T15:04:12.843Z,23.98
2022-12-25T15:06:53.276Z,22.63
2022-12-25T15:09:21.025Z,24.17
2022-12-25T15:11:53.108Z,22.73
2022-12-25T15:14:19.977Z,23.23
2022-12-25T15:16:53.136Z,22.45
2022-12-25T15:19:30.451Z,23.50
2022-12-25T15:22:01.562Z,23.70
2022-12-25T15:24:28.398Z,23.20
2022-12-25T15:26:57.996Z,23.58
2022-12-25T15:29:52.127Z,23.73
2022-12-25T15:32:20.726Z,23.90
2022-12-25T15:34:49.805Z,24.73
2022-12-25T15:37:18.226Z,23.73
2022-12-25T15:39:45.502Z,27.20
2022-12-25T15:42:18.567Z,27.95
2022-12-25T15:44:46.549Z,32.33
2022-12-25T15:47:15.120Z,33.45
2022-12-25T15:49:42.459Z,28.95
2022-12-25T15:52:15.586Z,29.77
2022-12-25T15:54:43.399Z,27.75
2022-12-25T15:57:30.759Z,26.75
2022-12-25T15:59:57.562Z,26.00
2022-12-25T16:02:24.662Z,28.40
2022-12-25T16:04:54.376Z,25.00
2022-12-25T16:07:23.597Z,24.70
2022-12-25T16:09:50.889Z,24.95
2022-12-25T16:12:18.667Z,24.40
2022-12-25T16:14:45.509Z,24.60
2022-12-25T16:17:15.564Z,24.90
2022-12-25T16:19:44.691Z,23.63
2022-12-25T16:22:21.467Z,23.58
2022-12-25T16:24:51.957Z,25.17
2022-12-25T16:27:19.355Z,24.83
2022-12-25T16:29:46.224Z,23.90
2022-12-25T16:32:14.361Z,23.92
2022-12-25T16:34:41.662Z,24.20
2022-12-25T16:37:08.498Z,26.52
2022-12-25T16:39:35.341Z,29.02
2022-12-25T16:42:02.201Z,27.25
2022-12-25T16:48:55.577Z,27.00
2022-12-25T16:51:22.527Z,26.00
2022-12-25T16:53:49.392Z,24.73
2022-12-25T16:56:25.496Z,26.60
2022-12-25T16:58:52.628Z,27.17
2022-12-25T17:01:22.449Z,25.92
2022-12-25T17:03:50.188Z,55.70
2022-12-25T17:06:23.531Z,33.95
2022-12-25T17:08:51.977Z,28.90
2022-12-25T17:11:23.590Z,28.65
2022-12-25T17:13:50.633Z,31.75
2022-12-25T17:16:20.518Z,29.30
2022-12-25T17:18:54.563Z,29.10
2022-12-25T17:21:22.510Z,29.15
2022-12-25T17:23:49.315Z,29.77
2022-12-25T17:26:16.349Z,30.33
2022-12-25T17:28:43.332Z,29.67
2022-12-25T17:31:12.344Z,28.15
2022-12-25T17:33:41.017Z,29.15
2022-12-25T17:36:17.065Z,32.63
2022-12-25T17:38:46.264Z,31.95
2022-12-25T17:41:14.658Z,28.65
2022-12-25T17:43:42.510Z,29.02
2022-12-25T17:46:16.925Z,26.77
2022-12-25T17:48:47.052Z,27.27
2022-12-25T17:51:16.522Z,29.15
2022-12-25T17:53:46.211Z,27.48
2022-12-25T17:56:13.888Z,30.83
2022-12-25T17:58:40.997Z,32.10
2022-12-25T18:01:10.885Z,34.40
2022-12-25T18:03:37.955Z,36.10
2022-12-25T18:06:09.808Z,28.75
2022-12-25T18:08:39.605Z,25.50
2022-12-25T18:11:10.391Z,27.67
2022-12-25T18:13:43.339Z,29.65
2022-12-25T18:16:10.362Z,36.03
2022-12-25T18:18:37.209Z,32.38
2022-12-25T18:21:06.978Z,28.52
2022-12-25T18:23:34.407Z,26.17
2022-12-25T18:26:06.196Z,26.67
2022-12-25T18:28:33.911Z,26.50
2022-12-25T18:31:01.017Z,31.70
2022-12-25T18:33:31.335Z,30.13
2022-12-25T18:36:00.461Z,28.60
2022-12-25T18:38:27.908Z,26.73
2022-12-25T18:40:55.960Z,27.58
2022-12-25T18:43:51.327Z,28.38
2022-12-25T18:46:10.180Z,30.52
2022-12-25T18:48:38.188Z,27.15
2022-12-25T18:51:08.448Z,26.40
2022-12-25T18:53:35.896Z,27.42
2022-12-25T18:56:11.892Z,25.15
2022-12-25T18:58:39.473Z,27.70
2022-12-25T19:01:17.159Z,26.83
2022-12-25T19:03:44.894Z,25.65
2022-12-25T19:06:39.032Z,26.83
2022-12-25T19:09:10.814Z,25.83
2022-12-25T19:11:46.588Z,26.00
2022-12-25T19:14:14.096Z,26.90
2022-12-25T19:16:41.126Z,26.20
2022-12-25T19:19:08.150Z,24.92
2022-12-25T19:21:35.359Z,26.77
2022-12-25T19:24:02.182Z,25.63
2022-12-25T19:26:29.093Z,24.70
2022-12-25T19:28:55.967Z,25.90
2022-12-25T19:31:22.910Z,25.95
2022-12-25T19:33:49.800Z,26.05
2022-12-25T19:36:17.066Z,25.50
2022-12-25T19:38:44.188Z,25.35
2022-12-25T19:41:16.660Z,25.85
2022-12-25T19:43:45.653Z,20.95
2022-12-25T19:46:40.474Z,23.20
2022-12-25T19:49:11.337Z,20.88
2022-12-25T19:51:41.197Z,20.65
2022-12-25T19:54:10.985Z,21.52
2022-12-25T19:56:37.980Z,22.00
2022-12-25T19:59:04.856Z,22.83
2022-12-25T20:01:33.098Z,22.90
2022-12-25T20:04:02.226Z,22.95
2022-12-25T20:06:34.796Z,24.75
2022-12-25T20:11:31.824Z,23.02
2022-12-25T20:13:59.925Z,23.75
2022-12-25T20:16:26.867Z,24.10
2022-12-25T20:18:53.836Z,23.58
2022-12-25T20:21:22.157Z,22.25
2022-12-25T20:23:51.181Z,23.55
2022-12-25T20:26:19.909Z,25.13
2022-12-25T20:28:47.952Z,23.50
2022-12-25T20:31:24.578Z,26.70
2022-12-25T20:33:51.480Z,23.92
2022-12-25T20:36:18.970Z,23.80
2022-12-25T20:38:46.332Z,23.42
2022-12-25T20:41:31.190Z,24.48
2022-12-25T20:43:58.476Z,23.60
2022-12-25T20:46:26.345Z,23.75
2022-12-25T20:48:53.933Z,22.33
2022-12-25T20:51:22.974Z,22.88
2022-12-25T20:53:50.534Z,24.15
2022-12-25T20:56:19.215Z,24.73
2022-12-25T20:58:46.351Z,23.88
2022-12-25T21:01:16.294Z,23.73
2022-12-25T21:03:43.597Z,23.52
2022-12-25T21:06:11.260Z,23.60
2022-12-25T21:08:38.679Z,24.25
2022-12-25T21:11:06.007Z,24.08
2022-12-25T21:13:35.975Z,23.88
2022-12-25T21:16:07.877Z,23.58
2022-12-25T21:18:35.450Z,23.48
2022-12-25T21:21:06.472Z,22.95
2022-12-25T21:23:35.172Z,24.90
2022-12-25T21:26:19.064Z,24.33
2022-12-25T21:28:47.758Z,23.45
2022-12-25T21:31:14.772Z,23.55
2022-12-25T21:33:55.054Z,23.88
2022-12-25T21:36:27.256Z,23.63
2022-12-25T21:38:59.555Z,23.48
2022-12-25T21:41:27.546Z,22.98
2022-12-25T21:43:55.530Z,23.33
2022-12-25T21:46:22.751Z,24.10
2022-12-25T21:48:49.851Z,25.10
2022-12-25T21:51:38.407Z,24.10
2022-12-25T21:54:06.859Z,23.33
2022-12-25T21:56:43.998Z,22.67
2022-12-25T21:59:18.117Z,23.92
2022-12-25T22:01:46.083Z,24.65
2022-12-25T22:04:15.207Z,23.67
2022-12-25T22:07:01.205Z,24.95
2022-12-25T22:09:28.191Z,23.30
2022-12-25T22:12:13.702Z,23.10
2022-12-25T22:14:55.420Z,21.05
2022-12-25T22:17:46.362Z,22.70
2022-12-25T22:20:17.018Z,21.83
2022-12-25T22:22:44.592Z,22.13
2022-12-25T22:25:11.839Z,21.35
2022-12-25T22:27:40.633Z,23.50
2022-12-25T22:30:11.513Z,21.45
2022-12-25T22:32:38.660Z,23.17
2022-12-25T22:35:05.780Z,20.23
2022-12-25T22:37:33.180Z,21.33
2022-12-25T22:40:02.285Z,21.45
2022-12-25T22:42:29.294Z,22.23
2022-12-25T22:44:56.204Z,21.42
2022-12-25T22:47:24.152Z,20.73
2022-12-25T22:49:50.972Z,21.67
